sensor_id;sensor_type;location;lat;lon;timestamp;P1;durP1;ratioP1;P2;durP2;ratioP2
59273;SDS011;45044;41.572;24.730;2023-08-17T00:02:12;9.95;;;7.07;;
59273;SDS011;45044;41.572;24.730;2023-08-17T00:04:39;10.30;;;7.47;;
59273;SDS011;45044;41.572;24.730;2023-08-17T00:07:07;10.48;;;6.90;;
59273;SDS011;45044;41.572;24.730;2023-08-17T00:09:33;10.25;;;7.80;;
59273;SDS011;45044;41.572;24.730;2023-08-17T00:12:00;10.80;;;7.13;;
59273;SDS011;45044;41.572;24.730;2023-08-17T00:14:28;10.63;;;7.80;;
59273;SDS011;45044;41.572;24.730;2023-08-17T00:16:54;9.27;;;6.95;;
59273;SDS011;45044;41.572;24.730;2023-08-17T00:19:21;11.60;;;7.65;;
59273;SDS011;45044;41.572;24.730;2023-08-17T00:21:51;10.55;;;7.82;;
59273;SDS011;45044;41.572;24.730;2023-08-17T00:24:19;9.90;;;7.35;;
59273;SDS011;45044;41.572;24.730;2023-08-17T00:26:45;10.18;;;7.57;;
59273;SDS011;45044;41.572;24.730;2023-08-17T00:29:12;11.05;;;7.32;;
59273;SDS011;45044;41.572;24.730;2023-08-17T00:31:41;9.65;;;6.90;;
59273;SDS011;45044;41.572;24.730;2023-08-17T00:34:08;10.02;;;7.07;;
59273;SDS011;45044;41.572;24.730;2023-08-17T00:36:35;11.20;;;7.55;;
59273;SDS011;45044;41.572;24.730;2023-08-17T00:39:02;11.43;;;7.63;;
59273;SDS011;45044;41.572;24.730;2023-08-17T00:41:29;10.32;;;7.97;;
59273;SDS011;45044;41.572;24.730;2023-08-17T00:43:56;10.85;;;7.03;;
59273;SDS011;45044;41.572;24.730;2023-08-17T00:46:23;10.45;;;7.60;;
59273;SDS011;45044;41.572;24.730;2023-08-17T00:48:50;10.88;;;7.13;;
59273;SDS011;45044;41.572;24.730;2023-08-17T00:51:17;9.80;;;6.85;;
59273;SDS011;45044;41.572;24.730;2023-08-17T00:53:46;10.60;;;6.68;;
59273;SDS011;45044;41.572;24.730;2023-08-17T00:56:13;9.35;;;6.78;;
59273;SDS011;45044;41.572;24.730;2023-08-17T00:58:40;9.25;;;6.10;;
59273;SDS011;45044;41.572;24.730;2023-08-17T01:01:08;12.55;;;7.38;;
59273;SDS011;45044;41.572;24.730;2023-08-17T01:03:35;12.07;;;7.13;;
59273;SDS011;45044;41.572;24.730;2023-08-17T01:06:02;10.38;;;6.80;;
59273;SDS011;45044;41.572;24.730;2023-08-17T01:08:29;10.80;;;7.07;;
59273;SDS011;45044;41.572;24.730;2023-08-17T01:13:50;10.50;;;6.82;;
59273;SDS011;45044;41.572;24.730;2023-08-17T01:16:40;10.07;;;6.72;;
59273;SDS011;45044;41.572;24.730;2023-08-17T01:19:12;9.02;;;6.85;;
59273;SDS011;45044;41.572;24.730;2023-08-17T01:21:49;9.10;;;6.20;;
59273;SDS011;45044;41.572;24.730;2023-08-17T01:24:16;8.60;;;6.22;;
59273;SDS011;45044;41.572;24.730;2023-08-17T01:26:43;8.40;;;6.22;;
59273;SDS011;45044;41.572;24.730;2023-08-17T01:29:10;9.05;;;5.93;;
59273;SDS011;45044;41.572;24.730;2023-08-17T01:31:40;8.45;;;5.57;;
59273;SDS011;45044;41.572;24.730;2023-08-17T01:34:14;8.45;;;5.93;;
59273;SDS011;45044;41.572;24.730;2023-08-17T01:36:52;8.70;;;5.50;;
59273;SDS011;45044;41.572;24.730;2023-08-17T01:39:23;8.85;;;5.88;;
59273;SDS011;45044;41.572;24.730;2023-08-17T01:41:54;8.23;;;6.30;;
59273;SDS011;45044;41.572;24.730;2023-08-17T01:44:23;8.93;;;6.70;;
59273;SDS011;45044;41.572;24.730;2023-08-17T01:46:52;10.13;;;5.93;;
59273;SDS011;45044;41.572;24.730;2023-08-17T01:49:19;8.85;;;6.22;;
59273;SDS011;45044;41.572;24.730;2023-08-17T01:51:46;9.00;;;5.90;;
59273;SDS011;45044;41.572;24.730;2023-08-17T01:54:13;9.73;;;6.38;;
59273;SDS011;45044;41.572;24.730;2023-08-17T01:56:40;9.82;;;6.00;;
59273;SDS011;45044;41.572;24.730;2023-08-17T01:59:06;8.73;;;6.03;;
59273;SDS011;45044;41.572;24.730;2023-08-17T02:01:33;10.05;;;6.03;;
59273;SDS011;45044;41.572;24.730;2023-08-17T02:04:00;8.15;;;5.80;;
59273;SDS011;45044;41.572;24.730;2023-08-17T02:06:28;8.75;;;5.90;;
59273;SDS011;45044;41.572;24.730;2023-08-17T02:08:55;8.55;;;5.68;;
59273;SDS011;45044;41.572;24.730;2023-08-17T02:11:22;9.07;;;5.97;;
59273;SDS011;45044;41.572;24.730;2023-08-17T02:13:49;8.52;;;6.05;;
59273;SDS011;45044;41.572;24.730;2023-08-17T02:16:15;9.90;;;5.72;;
59273;SDS011;45044;41.572;24.730;2023-08-17T02:18:42;7.65;;;5.40;;
59273;SDS011;45044;41.572;24.730;2023-08-17T02:21:09;8.18;;;5.57;;
59273;SDS011;45044;41.572;24.730;2023-08-17T02:23:36;11.55;;;6.32;;
59273;SDS011;45044;41.572;24.730;2023-08-17T02:26:02;8.82;;;5.38;;
59273;SDS011;45044;41.572;24.730;2023-08-17T02:28:29;7.60;;;5.70;;
59273;SDS011;45044;41.572;24.730;2023-08-17T02:30:56;8.20;;;5.10;;
59273;SDS011;45044;41.572;24.730;2023-08-17T02:33:24;10.00;;;5.03;;
59273;SDS011;45044;41.572;24.730;2023-08-17T02:35:51;8.55;;;4.63;;
59273;SDS011;45044;41.572;24.730;2023-08-17T02:38:18;8.27;;;5.28;;
59273;SDS011;45044;41.572;24.730;2023-08-17T02:40:45;7.53;;;4.78;;
59273;SDS011;45044;41.572;24.730;2023-08-17T02:43:12;8.07;;;5.50;;
59273;SDS011;45044;41.572;24.730;2023-08-17T02:45:38;9.40;;;5.57;;
59273;SDS011;45044;41.572;24.730;2023-08-17T02:48:05;8.07;;;5.03;;
59273;SDS011;45044;41.572;24.730;2023-08-17T02:50:32;8.05;;;4.68;;
59273;SDS011;45044;41.572;24.730;2023-08-17T02:52:59;7.68;;;4.85;;
59273;SDS011;45044;41.572;24.730;2023-08-17T02:55:26;7.15;;;4.18;;
59273;SDS011;45044;41.572;24.730;2023-08-17T02:57:53;7.45;;;4.30;;
59273;SDS011;45044;41.572;24.730;2023-08-17T03:00:19;7.88;;;4.20;;
59273;SDS011;45044;41.572;24.730;2023-08-17T03:02:46;7.50;;;4.40;;
59273;SDS011;45044;41.572;24.730;2023-08-17T03:05:13;6.53;;;4.53;;
59273;SDS011;45044;41.572;24.730;2023-08-17T03:07:40;8.65;;;4.25;;
59273;SDS011;45044;41.572;24.730;2023-08-17T03:10:06;7.40;;;4.53;;
59273;SDS011;45044;41.572;24.730;2023-08-17T03:12:33;7.22;;;4.82;;
59273;SDS011;45044;41.572;24.730;2023-08-17T03:15:01;6.97;;;4.00;;
59273;SDS011;45044;41.572;24.730;2023-08-17T03:17:27;10.15;;;4.65;;
59273;SDS011;45044;41.572;24.730;2023-08-17T03:19:54;7.07;;;4.88;;
59273;SDS011;45044;41.572;24.730;2023-08-17T03:22:21;7.72;;;4.00;;
59273;SDS011;45044;41.572;24.730;2023-08-17T03:24:48;8.10;;;5.03;;
59273;SDS011;45044;41.572;24.730;2023-08-17T03:27:15;7.22;;;4.80;;
59273;SDS011;45044;41.572;24.730;2023-08-17T03:29:42;7.57;;;4.22;;
59273;SDS011;45044;41.572;24.730;2023-08-17T03:32:09;6.40;;;4.55;;
59273;SDS011;45044;41.572;24.730;2023-08-17T03:34:35;8.18;;;4.68;;
59273;SDS011;45044;41.572;24.730;2023-08-17T03:37:03;14.55;;;6.13;;
59273;SDS011;45044;41.572;24.730;2023-08-17T03:39:30;8.85;;;5.35;;
59273;SDS011;45044;41.572;24.730;2023-08-17T03:41:57;7.60;;;4.32;;
59273;SDS011;45044;41.572;24.730;2023-08-17T03:44:23;7.40;;;5.05;;
59273;SDS011;45044;41.572;24.730;2023-08-17T03:46:50;6.80;;;4.18;;
59273;SDS011;45044;41.572;24.730;2023-08-17T03:49:17;6.18;;;4.43;;
59273;SDS011;45044;41.572;24.730;2023-08-17T03:51:44;7.40;;;4.68;;
59273;SDS011;45044;41.572;24.730;2023-08-17T03:54:12;6.90;;;4.22;;
59273;SDS011;45044;41.572;24.730;2023-08-17T03:56:39;6.97;;;4.20;;
59273;SDS011;45044;41.572;24.730;2023-08-17T03:59:06;7.68;;;4.50;;
59273;SDS011;45044;41.572;24.730;2023-08-17T04:01:33;7.80;;;5.32;;
59273;SDS011;45044;41.572;24.730;2023-08-17T04:03:59;8.68;;;5.18;;
59273;SDS011;45044;41.572;24.730;2023-08-17T04:06:26;7.95;;;4.63;;
59273;SDS011;45044;41.572;24.730;2023-08-17T04:08:53;7.13;;;5.00;;
59273;SDS011;45044;41.572;24.730;2023-08-17T04:11:20;10.15;;;4.80;;
59273;SDS011;45044;41.572;24.730;2023-08-17T04:13:46;7.13;;;5.30;;
59273;SDS011;45044;41.572;24.730;2023-08-17T04:16:13;14.68;;;5.65;;
59273;SDS011;45044;41.572;24.730;2023-08-17T04:18:40;10.00;;;5.18;;
59273;SDS011;45044;41.572;24.730;2023-08-17T04:21:06;8.35;;;5.68;;
59273;SDS011;45044;41.572;24.730;2023-08-17T04:23:33;10.25;;;5.57;;
59273;SDS011;45044;41.572;24.730;2023-08-17T04:26:00;8.55;;;5.13;;
59273;SDS011;45044;41.572;24.730;2023-08-17T04:28:27;9.30;;;4.65;;
59273;SDS011;45044;41.572;24.730;2023-08-17T04:30:54;13.02;;;6.00;;
59273;SDS011;45044;41.572;24.730;2023-08-17T04:33:21;7.65;;;5.13;;
59273;SDS011;45044;41.572;24.730;2023-08-17T04:35:47;12.38;;;5.68;;
59273;SDS011;45044;41.572;24.730;2023-08-17T04:38:14;8.38;;;5.30;;
59273;SDS011;45044;41.572;24.730;2023-08-17T04:40:41;9.10;;;5.55;;
59273;SDS011;45044;41.572;24.730;2023-08-17T04:43:09;7.40;;;5.53;;
59273;SDS011;45044;41.572;24.730;2023-08-17T04:45:37;8.65;;;5.30;;
59273;SDS011;45044;41.572;24.730;2023-08-17T04:48:04;8.65;;;5.53;;
59273;SDS011;45044;41.572;24.730;2023-08-17T04:50:32;9.07;;;5.30;;
59273;SDS011;45044;41.572;24.730;2023-08-17T04:52:59;7.45;;;5.32;;
59273;SDS011;45044;41.572;24.730;2023-08-17T04:55:26;8.70;;;5.55;;
59273;SDS011;45044;41.572;24.730;2023-08-17T04:57:52;9.40;;;5.65;;
59273;SDS011;45044;41.572;24.730;2023-08-17T05:00:19;7.63;;;5.28;;
59273;SDS011;45044;41.572;24.730;2023-08-17T05:02:51;9.93;;;6.07;;
59273;SDS011;45044;41.572;24.730;2023-08-17T05:05:18;8.07;;;5.40;;
59273;SDS011;45044;41.572;24.730;2023-08-17T05:07:45;7.75;;;5.05;;
59273;SDS011;45044;41.572;24.730;2023-08-17T05:10:12;6.88;;;5.13;;
59273;SDS011;45044;41.572;24.730;2023-08-17T05:12:39;7.65;;;5.22;;
59273;SDS011;45044;41.572;24.730;2023-08-17T05:15:06;8.50;;;4.57;;
59273;SDS011;45044;41.572;24.730;2023-08-17T05:17:36;7.40;;;4.57;;
59273;SDS011;45044;41.572;24.730;2023-08-17T05:20:03;6.57;;;4.38;;
59273;SDS011;45044;41.572;24.730;2023-08-17T05:22:31;7.70;;;4.53;;
59273;SDS011;45044;41.572;24.730;2023-08-17T05:24:57;9.10;;;4.97;;
59273;SDS011;45044;41.572;24.730;2023-08-17T05:27:24;7.65;;;4.60;;
59273;SDS011;45044;41.572;24.730;2023-08-17T05:29:51;9.45;;;5.35;;
59273;SDS011;45044;41.572;24.730;2023-08-17T05:32:18;7.43;;;4.78;;
59273;SDS011;45044;41.572;24.730;2023-08-17T05:34:46;7.22;;;5.30;;
59273;SDS011;45044;41.572;24.730;2023-08-17T05:37:13;7.20;;;4.68;;
59273;SDS011;45044;41.572;24.730;2023-08-17T05:39:41;8.70;;;5.35;;
59273;SDS011;45044;41.572;24.730;2023-08-17T05:42:08;9.30;;;5.28;;
59273;SDS011;45044;41.572;24.730;2023-08-17T05:44:40;9.40;;;4.85;;
59273;SDS011;45044;41.572;24.730;2023-08-17T05:47:06;8.52;;;5.40;;
59273;SDS011;45044;41.572;24.730;2023-08-17T05:49:33;7.88;;;4.75;;
59273;SDS011;45044;41.572;24.730;2023-08-17T05:52:00;6.57;;;4.53;;
59273;SDS011;45044;41.572;24.730;2023-08-17T05:54:27;7.28;;;4.50;;
59273;SDS011;45044;41.572;24.730;2023-08-17T05:56:54;7.88;;;4.60;;
59273;SDS011;45044;41.572;24.730;2023-08-17T05:59:21;5.97;;;3.78;;
59273;SDS011;45044;41.572;24.730;2023-08-17T06:01:48;5.97;;;4.03;;
59273;SDS011;45044;41.572;24.730;2023-08-17T06:04:15;8.32;;;4.50;;
59273;SDS011;45044;41.572;24.730;2023-08-17T06:06:41;8.02;;;3.72;;
59273;SDS011;45044;41.572;24.730;2023-08-17T06:09:08;6.10;;;3.33;;
59273;SDS011;45044;41.572;24.730;2023-08-17T06:11:35;7.45;;;3.78;;
59273;SDS011;45044;41.572;24.730;2023-08-17T06:14:02;5.28;;;3.40;;
59273;SDS011;45044;41.572;24.730;2023-08-17T06:16:29;7.35;;;3.70;;
59273;SDS011;45044;41.572;24.730;2023-08-17T06:18:56;7.97;;;3.45;;
59273;SDS011;45044;41.572;24.730;2023-08-17T06:21:23;10.80;;;3.97;;
59273;SDS011;45044;41.572;24.730;2023-08-17T06:23:49;9.32;;;3.88;;
59273;SDS011;45044;41.572;24.730;2023-08-17T06:26:16;9.35;;;3.88;;
59273;SDS011;45044;41.572;24.730;2023-08-17T06:28:43;5.65;;;3.40;;
59273;SDS011;45044;41.572;24.730;2023-08-17T06:31:10;7.25;;;3.33;;
59273;SDS011;45044;41.572;24.730;2023-08-17T06:33:37;8.98;;;3.63;;
59273;SDS011;45044;41.572;24.730;2023-08-17T06:36:03;9.07;;;4.03;;
59273;SDS011;45044;41.572;24.730;2023-08-17T06:38:30;5.82;;;2.90;;
59273;SDS011;45044;41.572;24.730;2023-08-17T06:40:57;6.63;;;3.08;;
59273;SDS011;45044;41.572;24.730;2023-08-17T06:43:24;6.47;;;2.78;;
59273;SDS011;45044;41.572;24.730;2023-08-17T06:45:51;4.85;;;2.70;;
59273;SDS011;45044;41.572;24.730;2023-08-17T06:48:17;5.07;;;2.50;;
59273;SDS011;45044;41.572;24.730;2023-08-17T06:50:44;7.00;;;2.88;;
59273;SDS011;45044;41.572;24.730;2023-08-17T06:53:11;5.07;;;3.00;;
59273;SDS011;45044;41.572;24.730;2023-08-17T06:55:37;5.97;;;3.40;;
59273;SDS011;45044;41.572;24.730;2023-08-17T06:58:04;6.25;;;2.97;;
59273;SDS011;45044;41.572;24.730;2023-08-17T07:00:34;6.95;;;2.90;;
59273;SDS011;45044;41.572;24.730;2023-08-17T07:03:01;3.85;;;2.60;;
59273;SDS011;45044;41.572;24.730;2023-08-17T07:05:30;5.38;;;2.85;;
59273;SDS011;45044;41.572;24.730;2023-08-17T07:07:57;6.10;;;2.72;;
59273;SDS011;45044;41.572;24.730;2023-08-17T07:10:25;5.70;;;2.67;;
59273;SDS011;45044;41.572;24.730;2023-08-17T07:12:52;3.30;;;2.13;;
59273;SDS011;45044;41.572;24.730;2023-08-17T07:15:19;4.78;;;2.38;;
59273;SDS011;45044;41.572;24.730;2023-08-17T07:17:46;5.00;;;2.58;;
59273;SDS011;45044;41.572;24.730;2023-08-17T07:20:13;4.65;;;2.20;;
59273;SDS011;45044;41.572;24.730;2023-08-17T07:22:43;5.00;;;2.25;;
59273;SDS011;45044;41.572;24.730;2023-08-17T07:25:10;6.25;;;2.65;;
59273;SDS011;45044;41.572;24.730;2023-08-17T07:27:37;6.93;;;2.78;;
59273;SDS011;45044;41.572;24.730;2023-08-17T07:30:04;8.98;;;2.40;;
59273;SDS011;45044;41.572;24.730;2023-08-17T07:32:31;4.85;;;2.22;;
59273;SDS011;45044;41.572;24.730;2023-08-17T07:34:58;4.85;;;2.30;;
59273;SDS011;45044;41.572;24.730;2023-08-17T07:37:25;4.57;;;2.35;;
59273;SDS011;45044;41.572;24.730;2023-08-17T07:39:59;3.25;;;2.50;;
59273;SDS011;45044;41.572;24.730;2023-08-17T07:42:26;7.00;;;2.70;;
59273;SDS011;45044;41.572;24.730;2023-08-17T07:44:53;5.25;;;2.35;;
59273;SDS011;45044;41.572;24.730;2023-08-17T07:47:20;4.40;;;2.40;;
59273;SDS011;45044;41.572;24.730;2023-08-17T07:49:47;3.63;;;2.40;;
59273;SDS011;45044;41.572;24.730;2023-08-17T07:52:15;5.30;;;2.30;;
59273;SDS011;45044;41.572;24.730;2023-08-17T07:54:42;3.67;;;2.33;;
59273;SDS011;45044;41.572;24.730;2023-08-17T07:57:09;4.20;;;2.13;;
59273;SDS011;45044;41.572;24.730;2023-08-17T07:59:36;5.95;;;2.35;;
59273;SDS011;45044;41.572;24.730;2023-08-17T08:02:03;4.38;;;2.10;;
59273;SDS011;45044;41.572;24.730;2023-08-17T08:04:30;5.18;;;2.58;;
59273;SDS011;45044;41.572;24.730;2023-08-17T08:06:56;3.92;;;2.20;;
59273;SDS011;45044;41.572;24.730;2023-08-17T08:09:24;5.57;;;2.00;;
59273;SDS011;45044;41.572;24.730;2023-08-17T08:11:51;6.05;;;2.42;;
59273;SDS011;45044;41.572;24.730;2023-08-17T08:14:18;4.53;;;2.40;;
59273;SDS011;45044;41.572;24.730;2023-08-17T08:16:44;4.97;;;2.30;;
59273;SDS011;45044;41.572;24.730;2023-08-17T08:19:12;3.63;;;2.28;;
59273;SDS011;45044;41.572;24.730;2023-08-17T08:21:39;5.50;;;2.40;;
59273;SDS011;45044;41.572;24.730;2023-08-17T08:24:06;4.63;;;2.28;;
59273;SDS011;45044;41.572;24.730;2023-08-17T08:26:43;4.45;;;2.40;;
59273;SDS011;45044;41.572;24.730;2023-08-17T08:29:10;4.13;;;2.20;;
59273;SDS011;45044;41.572;24.730;2023-08-17T08:31:37;5.65;;;2.50;;
59273;SDS011;45044;41.572;24.730;2023-08-17T08:34:03;6.05;;;2.33;;
59273;SDS011;45044;41.572;24.730;2023-08-17T08:36:31;6.25;;;2.60;;
59273;SDS011;45044;41.572;24.730;2023-08-17T08:38:57;6.07;;;2.60;;
59273;SDS011;45044;41.572;24.730;2023-08-17T08:41:24;7.20;;;2.90;;
59273;SDS011;45044;41.572;24.730;2023-08-17T08:43:53;6.78;;;2.50;;
59273;SDS011;45044;41.572;24.730;2023-08-17T08:46:20;5.20;;;1.95;;
59273;SDS011;45044;41.572;24.730;2023-08-17T08:48:51;3.85;;;2.47;;
59273;SDS011;45044;41.572;24.730;2023-08-17T08:51:21;6.05;;;2.50;;
59273;SDS011;45044;41.572;24.730;2023-08-17T08:53:54;8.57;;;2.63;;
59273;SDS011;45044;41.572;24.730;2023-08-17T08:56:30;5.68;;;2.40;;
59273;SDS011;45044;41.572;24.730;2023-08-17T08:59:01;5.15;;;2.30;;
59273;SDS011;45044;41.572;24.730;2023-08-17T09:01:30;4.47;;;2.55;;
59273;SDS011;45044;41.572;24.730;2023-08-17T09:04:01;5.45;;;2.83;;
59273;SDS011;45044;41.572;24.730;2023-08-17T09:06:29;8.35;;;2.55;;
59273;SDS011;45044;41.572;24.730;2023-08-17T09:08:57;5.00;;;2.25;;
59273;SDS011;45044;41.572;24.730;2023-08-17T09:11:24;4.00;;;2.50;;
59273;SDS011;45044;41.572;24.730;2023-08-17T09:13:52;5.95;;;2.53;;
59273;SDS011;45044;41.572;24.730;2023-08-17T09:16:19;3.42;;;2.50;;
59273;SDS011;45044;41.572;24.730;2023-08-17T09:18:49;5.72;;;2.53;;
59273;SDS011;45044;41.572;24.730;2023-08-17T09:21:20;4.90;;;2.38;;
59273;SDS011;45044;41.572;24.730;2023-08-17T09:23:51;4.80;;;2.35;;
59273;SDS011;45044;41.572;24.730;2023-08-17T09:26:29;5.28;;;2.60;;
59273;SDS011;45044;41.572;24.730;2023-08-17T09:28:59;4.47;;;2.40;;
59273;SDS011;45044;41.572;24.730;2023-08-17T09:31:26;3.60;;;2.50;;
59273;SDS011;45044;41.572;24.730;2023-08-17T09:33:57;6.25;;;2.78;;
59273;SDS011;45044;41.572;24.730;2023-08-17T09:36:25;6.45;;;2.83;;
59273;SDS011;45044;41.572;24.730;2023-08-17T09:38:52;10.95;;;4.30;;
59273;SDS011;45044;41.572;24.730;2023-08-17T09:41:19;9.57;;;3.25;;
59273;SDS011;45044;41.572;24.730;2023-08-17T09:43:46;3.92;;;2.50;;
59273;SDS011;45044;41.572;24.730;2023-08-17T09:46:14;4.22;;;2.70;;
59273;SDS011;45044;41.572;24.730;2023-08-17T09:48:43;6.47;;;2.63;;
59273;SDS011;45044;41.572;24.730;2023-08-17T09:51:14;5.30;;;2.85;;
59273;SDS011;45044;41.572;24.730;2023-08-17T09:53:42;5.22;;;2.70;;
59273;SDS011;45044;41.572;24.730;2023-08-17T09:56:09;5.82;;;2.85;;
59273;SDS011;45044;41.572;24.730;2023-08-17T09:58:42;5.87;;;2.80;;
59273;SDS011;45044;41.572;24.730;2023-08-17T10:01:09;5.05;;;2.72;;
59273;SDS011;45044;41.572;24.730;2023-08-17T10:03:37;5.10;;;2.78;;
59273;SDS011;45044;41.572;24.730;2023-08-17T10:06:09;5.20;;;2.60;;
59273;SDS011;45044;41.572;24.730;2023-08-17T10:08:43;5.28;;;2.63;;
59273;SDS011;45044;41.572;24.730;2023-08-17T10:11:14;5.25;;;2.67;;
59273;SDS011;45044;41.572;24.730;2023-08-17T10:13:51;4.90;;;2.40;;
59273;SDS011;45044;41.572;24.730;2023-08-17T10:16:29;6.20;;;2.97;;
59273;SDS011;45044;41.572;24.730;2023-08-17T10:21:46;3.35;;;2.47;;
59273;SDS011;45044;41.572;24.730;2023-08-17T10:24:18;5.78;;;3.08;;
59273;SDS011;45044;41.572;24.730;2023-08-17T10:26:45;6.45;;;2.42;;
59273;SDS011;45044;41.572;24.730;2023-08-17T10:29:14;3.08;;;2.20;;
59273;SDS011;45044;41.572;24.730;2023-08-17T10:31:43;4.10;;;2.92;;
59273;SDS011;45044;41.572;24.730;2023-08-17T10:34:14;5.15;;;2.63;;
59273;SDS011;45044;41.572;24.730;2023-08-17T10:36:41;4.65;;;2.72;;
59273;SDS011;45044;41.572;24.730;2023-08-17T10:39:19;5.40;;;2.75;;
59273;SDS011;45044;41.572;24.730;2023-08-17T10:41:50;3.65;;;2.25;;
59273;SDS011;45044;41.572;24.730;2023-08-17T10:47:24;4.60;;;2.88;;
59273;SDS011;45044;41.572;24.730;2023-08-17T10:50:03;5.07;;;2.60;;
59273;SDS011;45044;41.572;24.730;2023-08-17T10:52:32;3.58;;;2.50;;
59273;SDS011;45044;41.572;24.730;2023-08-17T10:55:09;3.80;;;2.58;;
59273;SDS011;45044;41.572;24.730;2023-08-17T10:57:39;6.93;;;2.50;;
59273;SDS011;45044;41.572;24.730;2023-08-17T11:00:17;4.38;;;2.40;;
59273;SDS011;45044;41.572;24.730;2023-08-17T11:02:55;4.53;;;2.25;;
59273;SDS011;45044;41.572;24.730;2023-08-17T11:05:51;5.70;;;2.63;;
59273;SDS011;45044;41.572;24.730;2023-08-17T11:11:33;5.63;;;2.33;;
59273;SDS011;45044;41.572;24.730;2023-08-17T11:13:42;6.00;;;2.83;;
59273;SDS011;45044;41.572;24.730;2023-08-17T11:16:11;4.05;;;2.72;;
59273;SDS011;45044;41.572;24.730;2023-08-17T11:18:44;4.32;;;2.47;;
59273;SDS011;45044;41.572;24.730;2023-08-17T11:21:11;5.68;;;2.80;;
59273;SDS011;45044;41.572;24.730;2023-08-17T11:23:44;4.50;;;2.53;;
59273;SDS011;45044;41.572;24.730;2023-08-17T11:26:13;4.15;;;2.60;;
59273;SDS011;45044;41.572;24.730;2023-08-17T11:28:42;5.85;;;2.75;;
59273;SDS011;45044;41.572;24.730;2023-08-17T11:31:12;4.03;;;2.50;;
59273;SDS011;45044;41.572;24.730;2023-08-17T11:33:41;5.18;;;2.40;;
59273;SDS011;45044;41.572;24.730;2023-08-17T11:36:08;5.13;;;2.72;;
59273;SDS011;45044;41.572;24.730;2023-08-17T11:38:37;5.97;;;2.80;;
59273;SDS011;45044;41.572;24.730;2023-08-17T11:41:08;6.18;;;2.40;;
59273;SDS011;45044;41.572;24.730;2023-08-17T11:43:43;3.75;;;2.03;;
59273;SDS011;45044;41.572;24.730;2023-08-17T11:46:11;5.68;;;2.92;;
59273;SDS011;45044;41.572;24.730;2023-08-17T11:48:38;5.20;;;2.92;;
59273;SDS011;45044;41.572;24.730;2023-08-17T11:51:05;6.05;;;2.60;;
59273;SDS011;45044;41.572;24.730;2023-08-17T11:53:32;5.63;;;3.08;;
59273;SDS011;45044;41.572;24.730;2023-08-17T11:56:01;5.18;;;2.38;;
59273;SDS011;45044;41.572;24.730;2023-08-17T11:58:43;4.65;;;2.75;;
59273;SDS011;45044;41.572;24.730;2023-08-17T12:01:11;5.28;;;2.38;;
59273;SDS011;45044;41.572;24.730;2023-08-17T12:03:39;4.25;;;2.70;;
59273;SDS011;45044;41.572;24.730;2023-08-17T12:06:08;5.93;;;2.95;;
59273;SDS011;45044;41.572;24.730;2023-08-17T12:08:36;5.00;;;2.40;;
59273;SDS011;45044;41.572;24.730;2023-08-17T12:11:03;3.50;;;2.50;;
59273;SDS011;45044;41.572;24.730;2023-08-17T12:13:31;5.18;;;2.67;;
59273;SDS011;45044;41.572;24.730;2023-08-17T12:16:00;5.05;;;2.72;;
59273;SDS011;45044;41.572;24.730;2023-08-17T12:18:27;6.75;;;2.70;;
59273;SDS011;45044;41.572;24.730;2023-08-17T12:20:54;6.20;;;2.78;;
59273;SDS011;45044;41.572;24.730;2023-08-17T12:23:22;5.57;;;2.45;;
59273;SDS011;45044;41.572;24.730;2023-08-17T12:25:52;5.40;;;3.00;;
59273;SDS011;45044;41.572;24.730;2023-08-17T12:28:20;4.85;;;2.58;;
59273;SDS011;45044;41.572;24.730;2023-08-17T12:30:55;4.72;;;2.53;;
59273;SDS011;45044;41.572;24.730;2023-08-17T12:33:27;3.60;;;2.22;;
59273;SDS011;45044;41.572;24.730;2023-08-17T12:35:54;5.22;;;3.05;;
59273;SDS011;45044;41.572;24.730;2023-08-17T12:38:23;6.47;;;2.80;;
59273;SDS011;45044;41.572;24.730;2023-08-17T12:40:50;6.07;;;2.83;;
59273;SDS011;45044;41.572;24.730;2023-08-17T12:43:17;6.22;;;2.63;;
59273;SDS011;45044;41.572;24.730;2023-08-17T12:45:44;5.10;;;2.60;;
59273;SDS011;45044;41.572;24.730;2023-08-17T12:48:11;4.65;;;2.60;;
59273;SDS011;45044;41.572;24.730;2023-08-17T12:50:37;4.82;;;2.70;;
59273;SDS011;45044;41.572;24.730;2023-08-17T12:53:07;3.60;;;2.63;;
59273;SDS011;45044;41.572;24.730;2023-08-17T12:55:34;4.35;;;2.80;;
59273;SDS011;45044;41.572;24.730;2023-08-17T12:58:01;4.55;;;2.83;;
59273;SDS011;45044;41.572;24.730;2023-08-17T13:00:28;6.18;;;2.83;;
59273;SDS011;45044;41.572;24.730;2023-08-17T13:02:55;4.30;;;2.63;;
59273;SDS011;45044;41.572;24.730;2023-08-17T13:05:22;3.88;;;2.55;;
59273;SDS011;45044;41.572;24.730;2023-08-17T13:07:49;6.20;;;2.83;;
59273;SDS011;45044;41.572;24.730;2023-08-17T13:10:16;3.75;;;2.55;;
59273;SDS011;45044;41.572;24.730;2023-08-17T13:12:42;4.38;;;2.72;;
59273;SDS011;45044;41.572;24.730;2023-08-17T13:15:09;5.60;;;2.60;;
59273;SDS011;45044;41.572;24.730;2023-08-17T13:17:36;3.88;;;2.70;;
59273;SDS011;45044;41.572;24.730;2023-08-17T13:20:03;4.82;;;2.33;;
59273;SDS011;45044;41.572;24.730;2023-08-17T13:22:32;5.05;;;2.55;;
59273;SDS011;45044;41.572;24.730;2023-08-17T13:24:58;6.80;;;3.00;;
59273;SDS011;45044;41.572;24.730;2023-08-17T13:27:25;3.22;;;2.78;;
59273;SDS011;45044;41.572;24.730;2023-08-17T13:29:53;3.75;;;2.58;;
59273;SDS011;45044;41.572;24.730;2023-08-17T13:32:20;5.07;;;2.58;;
59273;SDS011;45044;41.572;24.730;2023-08-17T13:34:47;4.47;;;2.60;;
59273;SDS011;45044;41.572;24.730;2023-08-17T13:37:13;4.57;;;2.65;;
59273;SDS011;45044;41.572;24.730;2023-08-17T13:39:40;5.35;;;2.55;;
59273;SDS011;45044;41.572;24.730;2023-08-17T13:42:07;5.88;;;2.58;;
59273;SDS011;45044;41.572;24.730;2023-08-17T13:44:34;3.95;;;2.47;;
59273;SDS011;45044;41.572;24.730;2023-08-17T13:47:00;3.72;;;2.50;;
59273;SDS011;45044;41.572;24.730;2023-08-17T13:49:27;6.53;;;2.63;;
59273;SDS011;45044;41.572;24.730;2023-08-17T13:51:54;3.85;;;2.28;;
59273;SDS011;45044;41.572;24.730;2023-08-17T13:54:23;4.38;;;2.25;;
59273;SDS011;45044;41.572;24.730;2023-08-17T13:56:50;3.92;;;2.30;;
59273;SDS011;45044;41.572;24.730;2023-08-17T13:59:17;3.88;;;2.38;;
59273;SDS011;45044;41.572;24.730;2023-08-17T14:01:44;5.90;;;2.42;;
59273;SDS011;45044;41.572;24.730;2023-08-17T14:04:11;4.15;;;1.90;;
59273;SDS011;45044;41.572;24.730;2023-08-17T14:06:39;3.80;;;2.25;;
59273;SDS011;45044;41.572;24.730;2023-08-17T14:09:06;4.55;;;2.47;;
59273;SDS011;45044;41.572;24.730;2023-08-17T14:11:33;3.83;;;2.53;;
59273;SDS011;45044;41.572;24.730;2023-08-17T14:14:00;4.47;;;2.40;;
59273;SDS011;45044;41.572;24.730;2023-08-17T14:16:26;4.05;;;2.38;;
59273;SDS011;45044;41.572;24.730;2023-08-17T14:18:53;4.03;;;2.60;;
59273;SDS011;45044;41.572;24.730;2023-08-17T14:21:21;3.88;;;2.55;;
59273;SDS011;45044;41.572;24.730;2023-08-17T14:23:48;5.10;;;2.53;;
59273;SDS011;45044;41.572;24.730;2023-08-17T14:26:15;4.88;;;2.40;;
59273;SDS011;45044;41.572;24.730;2023-08-17T14:28:42;4.30;;;2.33;;
59273;SDS011;45044;41.572;24.730;2023-08-17T14:31:11;4.20;;;2.30;;
59273;SDS011;45044;41.572;24.730;2023-08-17T14:33:42;3.60;;;2.30;;
59273;SDS011;45044;41.572;24.730;2023-08-17T14:36:09;4.13;;;2.33;;
59273;SDS011;45044;41.572;24.730;2023-08-17T14:38:36;5.25;;;2.72;;
59273;SDS011;45044;41.572;24.730;2023-08-17T14:41:04;6.72;;;3.17;;
59273;SDS011;45044;41.572;24.730;2023-08-17T14:43:32;4.85;;;2.97;;
59273;SDS011;45044;41.572;24.730;2023-08-17T14:45:59;5.00;;;2.63;;
59273;SDS011;45044;41.572;24.730;2023-08-17T14:48:26;3.65;;;2.67;;
59273;SDS011;45044;41.572;24.730;2023-08-17T14:50:53;5.43;;;2.67;;